.
WxDataArchive / Data Records for 2014-11-21
2014-11-20 November 2014 2014-11-22

Data Records for Friday, 21 November 2014

Time	Temp	Chill	HIndex	Humid	Dewpt	 Wind 	HiWind	WindDir	Rain 	Barom
-----	----	-----	------	-----	-----	------	------	-------	-----	-----
00:00	18.8	18.8	18.8	55	5.3	0	1	292	0.00	30.245 
00:05	18.8	18.8	18.8	55	5.3	0	1	292	0.00	30.245 
00:10	18.8	18.8	18.8	55	5.3	0	1	292	0.00	30.245 
00:15	18.8	18.8	18.8	55	5.3	0	1	292	0.00	30.249 
00:20	18.8	18.8	18.8	56	5.7	0	1	292	0.00	30.249 
00:25	18.6	18.6	18.6	56	5.5	0	2	292	0.00	30.249 
00:30	18.6	18.6	18.6	56	5.5	0	1	292	0.00	30.256 
00:35	18.4	18.4	18.4	56	5.4	0	1	292	0.00	30.256 
00:40	18.4	18.4	18.4	56	5.4	0	1	292	0.00	30.256 
00:45	18.3	18.3	18.3	57	5.7	0	1	292	0.00	30.264 
00:50	18.3	18.3	18.3	57	5.7	0	2	292	0.00	30.264 
00:55	18.3	18.3	18.3	57	5.7	0	1	292	0.00	30.264 
01:00	18.3	18.3	18.3	57	5.7	0	1	292	0.00	30.276 
01:05	18.1	18.1	18.1	57	5.5	0	1	292	0.00	30.276 
01:10	18.1	18.1	18.1	57	5.5	0	1	292	0.00	30.276 
01:15	18.1	18.1	18.1	58	5.8	0	2	292	0.00	30.281 
01:20	18.1	18.1	18.1	58	5.8	0	1	292	0.00	30.281 
01:25	18.0	18.0	18.0	58	5.7	0	2	292	0.00	30.281 
01:30	18.0	18.0	18.0	58	5.7	0	1	292	0.00	30.292 
01:35	18.0	18.0	18.0	58	5.7	0	1	292	0.00	30.292 
01:40	17.8	17.8	17.8	58	5.6	0	1	292	0.00	30.292 
01:45	17.8	17.8	17.8	58	5.6	0	1	292	0.00	30.296 
01:50	17.7	17.7	17.7	59	5.8	0	2	292	0.00	30.296 
01:55	17.8	17.8	17.8	59	5.9	0	1	292	0.00	30.296 
02:00	17.7	17.7	17.7	59	5.8	0	1	292	0.00	30.307 
02:05	17.7	17.7	17.7	59	5.8	0	1	292	0.00	30.307 
02:10	17.7	17.7	17.7	59	5.8	0	1	292	0.00	30.307 
02:15	17.5	17.5	17.5	59	5.6	0	1	292	0.00	30.314 
02:20	17.3	17.3	17.3	60	5.8	0	1	292	0.00	30.314 
02:25	17.2	17.2	17.2	60	5.7	0	1	292	0.00	30.314 
02:30	17.2	17.2	17.2	60	5.7	0	1	292	0.00	30.326 
02:35	17.0	17.0	17.0	61	5.9	0	1	292	0.00	30.326 
02:40	16.9	16.9	16.9	61	5.8	0	1	292	0.00	30.326 
02:45	16.9	16.9	16.9	61	5.8	0	1	292	0.00	30.329 
02:50	16.7	16.7	16.7	61	5.6	0	1	292	0.00	30.329 
02:55	16.7	16.7	16.7	61	5.6	0	1	292	0.00	30.329 
03:00	16.5	16.5	16.5	62	5.8	0	0	---	0.00	30.342 
03:05	16.5	16.5	16.5	62	5.8	0	1	292	0.00	30.342 
03:10	16.4	16.4	16.4	62	5.7	0	1	292	0.00	30.342 
03:15	16.2	16.2	16.2	62	5.5	0	1	292	0.00	30.347 
03:20	16.2	16.2	16.2	62	5.5	0	1	292	0.00	30.347 
03:25	16.1	16.1	16.1	62	5.4	0	1	292	0.00	30.347 
03:30	15.9	15.9	15.9	63	5.6	0	0	---	0.00	30.354 
03:35	15.7	15.7	15.7	63	5.4	0	0	---	0.00	30.354 
03:40	15.6	15.6	15.6	63	5.3	0	0	---	0.00	30.354 
03:45	15.4	15.4	15.4	64	5.4	0	1	292	0.00	30.361 
03:50	15.2	15.2	15.2	64	5.2	0	0	---	0.00	30.361 
03:55	15.1	15.1	15.1	64	5.1	0	0	---	0.00	30.361 
04:00	15.1	15.1	15.1	65	5.5	0	0	---	0.00	30.362 
04:05	15.1	15.1	15.1	65	5.5	0	1	292	0.00	30.362 
04:10	15.1	15.1	15.1	65	5.5	0	0	---	0.00	30.362 
04:15	15.1	15.1	15.1	65	5.5	0	1	292	0.00	30.370 
04:20	15.1	15.1	15.1	65	5.5	0	1	292	0.00	30.370 
04:25	15.1	15.1	15.1	65	5.5	0	0	---	0.00	30.370 
04:30	14.9	14.9	14.9	65	5.3	0	1	292	0.00	30.376 
04:35	14.9	14.9	14.9	65	5.3	0	0	---	0.00	30.376 
04:40	14.8	14.8	14.8	65	5.2	0	0	---	0.00	30.376 
04:45	14.6	14.6	14.6	66	5.3	0	0	---	0.00	30.382 
04:50	14.6	14.6	14.6	66	5.3	0	0	---	0.00	30.382 
04:55	14.6	14.6	14.6	66	5.3	0	1	292	0.00	30.382 
05:00	14.6	14.6	14.6	66	5.3	0	1	292	0.00	30.392 
05:05	14.6	14.6	14.6	66	5.3	0	1	292	0.00	30.392 
05:10	14.4	14.4	14.4	66	5.1	0	1	292	0.00	30.392 
05:15	14.3	14.3	14.3	66	5.1	0	0	---	0.00	30.396 
05:20	14.1	14.1	14.1	67	5.2	0	0	---	0.00	30.396 
05:25	14.0	14.0	14.0	67	5.1	0	0	---	0.00	30.396 
05:30	14.0	14.0	14.0	67	5.1	0	0	---	0.00	30.396 
05:35	14.0	14.0	14.0	67	5.1	0	0	---	0.00	30.396 
05:40	13.8	13.8	13.8	67	4.9	0	0	---	0.00	30.396 
05:45	13.6	13.6	13.6	67	4.7	0	0	---	0.00	30.403 
05:50	13.5	13.5	13.5	68	4.9	0	0	---	0.00	30.403 
05:55	13.5	13.5	13.5	68	4.9	0	0	---	0.00	30.403 
06:00	13.3	13.3	13.3	68	4.7	0	1	292	0.00	30.419 
06:05	13.1	13.1	13.1	69	4.9	0	0	---	0.00	30.419 
06:10	13.3	13.3	13.3	69	5.1	0	0	---	0.00	30.419 
06:15	13.3	13.3	13.3	69	5.1	0	0	---	0.00	30.428 
06:20	13.1	13.1	13.1	69	4.9	0	0	---	0.00	30.428 
06:25	13.1	13.1	13.1	69	4.9	0	0	---	0.00	30.428 
06:30	12.9	12.9	12.9	69	4.7	0	0	---	0.00	30.432 
06:35	12.8	12.8	12.8	69	4.6	0	0	---	0.00	30.432 
06:40	12.6	12.6	12.6	70	4.7	0	0	---	0.00	30.432 
06:45	12.4	12.4	12.4	70	4.5	0	0	---	0.00	30.434 
06:50	12.1	12.1	12.1	70	4.2	0	0	---	0.00	30.434 
06:55	11.9	11.9	11.9	70	4.0	0	0	---	0.00	30.434 
07:00	11.6	11.6	11.6	70	3.7	0	0	---	0.00	30.437 
07:05	11.4	11.4	11.4	71	3.9	0	0	---	0.00	30.437 
07:10	11.2	11.2	11.2	72	4.0	0	0	---	0.00	30.437 
07:15	11.2	11.2	11.2	73	4.3	0	0	---	0.00	30.448 
07:20	11.2	11.2	11.2	73	4.3	0	0	---	0.00	30.448 
07:25	11.1	11.1	11.1	73	4.2	0	0	---	0.00	30.448 
07:30	10.9	10.9	10.9	73	4.0	0	0	---	0.00	30.457 
07:35	10.7	10.7	10.7	74	4.1	0	0	---	0.00	30.457 
07:40	10.7	10.7	10.7	74	4.1	0	0	---	0.00	30.457 
07:45	10.7	10.7	10.7	74	4.1	0	0	---	0.00	30.464 
07:50	10.7	10.7	10.7	75	4.4	0	0	---	0.00	30.464 
07:55	10.9	10.9	10.9	75	4.6	0	0	---	0.00	30.464 
08:00	10.9	10.9	10.9	75	4.6	0	0	---	0.00	30.470 
08:05	11.2	11.2	11.2	76	5.1	0	0	---	0.00	30.470 
08:10	11.6	11.6	11.6	76	5.5	0	0	---	0.00	30.470 
08:15	12.3	12.3	12.3	76	6.2	0	1	292	0.00	30.481 
08:20	12.9	12.9	12.9	75	6.5	0	0	---	0.00	30.481 
08:25	13.5	13.5	13.5	74	6.8	0	0	---	0.00	30.481 
08:30	13.8	13.8	13.8	73	6.8	0	0	---	0.00	30.492 
08:35	14.1	14.1	14.1	73	7.1	0	0	---	0.00	30.492 
08:40	14.4	14.4	14.4	72	7.1	0	0	---	0.00	30.492 
08:45	14.8	14.8	14.8	72	7.4	0	0	---	0.00	30.493 
08:50	15.1	15.1	15.1	71	7.4	0	0	---	0.00	30.493 
08:55	15.6	15.6	15.6	71	7.9	0	0	---	0.00	30.493 
09:00	15.9	15.9	15.9	70	7.9	0	1	292	0.00	30.496 
09:05	16.4	16.4	16.4	69	8.0	0	1	292	0.00	30.496 
09:10	16.9	16.9	16.9	69	8.5	0	1	292	0.00	30.496 
09:15	17.3	17.3	17.3	67	8.3	0	1	292	0.00	30.504 
09:20	17.8	17.8	17.8	67	8.7	0	1	292	0.00	30.504 
09:25	18.4	18.4	18.4	66	9.0	0	1	292	0.00	30.504 
09:30	18.9	18.9	18.9	65	9.1	0	1	292	0.00	30.504 
09:35	19.2	19.2	19.2	65	9.4	0	1	292	0.00	30.504 
09:40	19.5	19.5	19.5	64	9.3	0	1	292	0.00	30.504 
09:45	19.9	19.9	19.9	63	9.4	0	1	292	0.00	30.502 
09:50	20.3	20.3	20.3	63	9.7	0	1	292	0.00	30.502 
09:55	20.6	20.6	20.6	62	9.7	0	1	292	0.00	30.502 
10:00	21.0	21.0	21.0	62	10.1	0	1	292	0.00	30.504 
10:05	21.3	21.3	21.3	62	10.3	0	1	292	0.00	30.504 
10:10	21.6	21.6	21.6	61	10.3	0	1	292	0.00	30.504 
10:15	21.9	21.9	21.9	61	10.5	0	2	292	0.00	30.511 
10:20	22.2	22.2	22.2	60	10.5	0	1	292	0.00	30.511 
10:25	22.5	22.5	22.5	60	10.7	0	1	292	0.00	30.511 
10:30	22.9	22.9	22.9	60	11.1	0	1	292	0.00	30.520 
10:35	23.2	23.2	23.2	59	11.0	0	1	292	0.00	30.520 
10:40	23.5	23.5	23.5	59	11.3	0	1	292	0.00	30.520 
10:45	23.8	23.8	23.8	58	11.2	0	1	292	0.00	30.528 
10:50	23.9	23.9	23.9	58	11.3	0	1	292	0.00	30.528 
10:55	24.1	24.1	24.1	56	10.7	0	1	292	0.00	30.528 
11:00	24.2	24.2	24.2	56	10.8	0	1	292	0.00	30.529 
11:05	24.4	24.4	24.4	56	11.0	0	1	292	0.00	30.529 
11:10	24.5	24.5	24.5	54	10.3	0	1	292	0.00	30.529 
11:15	24.8	24.8	24.8	55	11.0	0	1	292	0.00	30.533 
11:20	25.0	25.0	25.0	55	11.1	0	1	292	0.00	30.533 
11:25	25.3	25.3	25.3	55	11.4	0	1	292	0.00	30.533 
11:30	25.4	25.4	25.4	54	11.1	0	2	292	0.00	30.532 
11:35	25.4	25.4	25.4	55	11.5	0	2	292	0.00	30.532 
11:40	25.7	25.7	25.7	54	11.4	0	0	---	0.00	30.532 
11:45	25.8	25.8	25.8	53	11.1	0	1	292	0.00	30.531 
11:50	26.1	26.1	26.1	53	11.3	0	1	292	0.00	30.531 
11:55	26.1	26.1	26.1	52	10.9	0	1	292	0.00	30.531 
12:00	26.1	26.1	26.1	52	10.9	0	1	292	0.00	30.526 
12:05	26.3	26.3	26.3	52	11.1	0	1	292	0.00	30.526 
12:10	26.4	26.4	26.4	52	11.2	0	2	292	0.00	30.526 
12:15	26.6	26.6	26.6	52	11.4	0	2	292	0.00	30.524 
12:20	26.7	26.7	26.7	53	11.9	0	1	292	0.00	30.524 
12:25	26.7	26.7	26.7	52	11.5	0	2	292	0.00	30.524 
12:30	26.7	26.7	26.7	53	11.9	1	3	292	0.00	30.517 
12:35	26.7	26.7	26.7	53	11.9	0	3	112	0.00	30.517 
12:40	26.9	26.9	26.9	52	11.7	0	2	248	0.00	30.517 
12:45	26.9	26.9	26.9	52	11.7	0	4	225	0.00	30.514 
12:50	27.0	27.0	27.0	52	11.7	0	4	112	0.00	30.514 
12:55	27.0	27.0	27.0	52	11.7	0	2	112	0.00	30.514 
13:00	27.0	27.0	27.0	52	11.7	0	2	112	0.00	30.510 
13:05	27.2	27.2	27.2	51	11.5	0	3	225	0.00	30.510 
13:10	27.3	27.3	27.3	50	11.1	0	3	135	0.00	30.510 
13:15	27.3	27.3	27.3	53	12.5	0	2	135	0.00	30.506 
13:20	27.2	27.2	27.2	50	11.1	0	3	135	0.00	30.506 
13:25	27.0	27.0	27.0	52	11.7	0	2	135	0.00	30.506 
13:30	27.2	27.2	27.2	51	11.5	0	2	202	0.00	30.501 
13:35	27.2	27.2	27.2	50	11.1	0	3	135	0.00	30.501 
13:40	27.2	27.2	27.2	51	11.5	1	3	112	0.00	30.501 
13:45	27.5	27.5	27.5	52	12.2	0	2	112	0.00	30.492 
13:50	27.6	27.6	27.6	51	11.9	0	3	90	0.00	30.492 
13:55	27.8	27.8	27.8	52	12.5	0	1	90	0.00	30.492 
14:00	27.8	27.8	27.8	50	11.6	0	3	90	0.00	30.484 
14:05	27.6	27.6	27.6	50	11.4	0	3	90	0.00	30.484 
14:10	27.8	27.8	27.8	51	12.1	0	2	90	0.00	30.484 
14:15	27.9	27.9	27.9	50	11.7	0	1	90	0.00	30.484 
14:20	27.9	27.9	27.9	50	11.7	0	4	90	0.00	30.484 
14:25	27.9	27.9	27.9	50	11.7	1	3	90	0.00	30.484 
14:30	27.9	27.9	27.9	51	12.1	0	2	90	0.00	30.479 
14:35	27.9	27.9	27.9	50	11.7	1	5	90	0.00	30.479 
14:40	27.9	27.9	27.9	51	12.1	0	3	90	0.00	30.479 
14:45	28.1	28.1	28.1	51	12.3	0	2	90	0.00	30.477 
14:50	28.2	28.2	28.2	49	11.5	1	4	90	0.00	30.477 
14:55	28.2	28.2	28.2	50	12.0	0	2	90	0.00	30.477 
15:00	28.1	28.1	28.1	48	11.0	1	4	90	0.00	30.468 
15:05	27.9	27.9	27.9	49	11.2	0	2	90	0.00	30.468 
15:10	27.9	27.9	27.9	49	11.2	0	3	90	0.00	30.468 
15:15	28.2	28.2	28.2	50	12.0	0	2	90	0.00	30.466 
15:20	28.2	28.2	28.2	47	10.6	1	4	90	0.00	30.466 
15:25	28.1	28.1	28.1	48	11.0	1	3	90	0.00	30.466 
15:30	27.9	27.9	27.9	49	11.2	1	4	68	0.00	30.460 
15:35	27.9	27.9	27.9	49	11.2	1	3	68	0.00	30.460 
15:40	27.8	27.8	27.8	49	11.2	0	3	90	0.00	30.460 
15:45	27.8	27.8	27.8	49	11.2	1	5	112	0.00	30.465 
15:50	27.8	27.8	27.8	48	10.7	1	5	0	0.00	30.465 
15:55	27.8	27.8	27.8	49	11.2	0	3	135	0.00	30.465 
16:00	27.6	27.6	27.6	48	10.5	1	4	90	0.00	30.461 
16:05	27.6	27.6	27.6	48	10.5	1	3	135	0.00	30.461 
16:10	27.5	27.5	27.5	49	10.9	1	4	135	0.00	30.461 
16:15	27.5	27.5	27.5	50	11.3	0	2	112	0.00	30.458 
16:20	27.5	27.5	27.5	51	11.8	0	1	135	0.00	30.458 
16:25	27.5	27.5	27.5	50	11.3	0	3	135	0.00	30.458 
16:30	27.5	27.5	27.5	50	11.3	1	3	112	0.00	30.460 
16:35	27.3	27.3	27.3	51	11.6	0	3	112	0.00	30.460 
16:40	27.3	27.3	27.3	52	12.0	0	2	112	0.00	30.460 
16:45	27.2	27.2	27.2	52	11.9	1	3	112	0.00	30.467 
16:50	27.0	27.0	27.0	52	11.7	0	2	112	0.00	30.467 
16:55	26.9	26.9	26.9	51	11.2	0	2	112	0.00	30.467 
17:00	26.7	26.7	26.7	51	11.0	1	4	112	0.00	30.466 
17:05	26.6	26.6	26.6	51	10.9	1	4	112	0.00	30.466 
17:10	26.4	26.4	26.4	52	11.2	0	2	90	0.00	30.466 
17:15	26.3	26.3	26.3	52	11.1	0	1	90	0.00	30.469 
17:20	26.0	26.0	26.0	52	10.8	0	2	90	0.00	30.469 
17:25	25.8	25.8	25.8	53	11.1	0	1	90	0.00	30.469 
17:30	25.7	25.7	25.7	53	11.0	0	2	90	0.00	30.463 
17:35	25.6	25.6	25.6	53	10.9	0	2	90	0.00	30.463 
17:40	25.4	25.4	25.4	54	11.1	0	1	90	0.00	30.463 
17:45	25.3	25.3	25.3	54	11.0	0	1	90	0.00	30.465 
17:50	25.0	25.0	25.0	54	10.7	0	1	90	0.00	30.465 
17:55	24.8	24.8	24.8	55	11.0	0	1	90	0.00	30.465 
18:00	24.5	24.5	24.5	56	11.1	0	1	90	0.00	30.458 
18:05	24.2	24.2	24.2	56	10.8	0	1	90	0.00	30.458 
18:10	24.1	24.1	24.1	57	11.1	0	1	90	0.00	30.458 
18:15	23.9	23.9	23.9	57	10.9	0	1	90	0.00	30.457 
18:20	23.8	23.8	23.8	58	11.2	0	1	90	0.00	30.457 
18:25	23.5	23.5	23.5	58	10.9	0	0	---	0.00	30.457 
18:30	23.3	23.3	23.3	59	11.1	0	1	90	0.00	30.460 
18:35	23.2	23.2	23.2	60	11.4	0	1	90	0.00	30.460 
18:40	23.2	23.2	23.2	60	11.4	0	1	90	0.00	30.460 
18:45	23.0	23.0	23.0	61	11.6	0	1	90	0.00	30.450 
18:50	22.9	22.9	22.9	61	11.5	0	1	90	0.00	30.450 
18:55	22.5	22.5	22.5	61	11.1	0	1	90	0.00	30.450 
19:00	22.4	22.4	22.4	61	11.0	0	0	---	0.00	30.439 
19:05	22.2	22.2	22.2	62	11.2	0	1	90	0.00	30.439 
19:10	22.1	22.1	22.1	62	11.1	0	0	---	0.00	30.439 
19:15	21.9	21.9	21.9	62	10.9	0	1	90	0.00	30.436 
19:20	21.8	21.8	21.8	62	10.8	0	1	90	0.00	30.436 
19:25	21.6	21.6	21.6	62	10.6	0	1	90	0.00	30.436 
19:30	21.6	21.6	21.6	62	10.6	0	0	---	0.00	30.435 
19:35	21.4	21.4	21.4	63	10.8	0	0	---	0.00	30.435 
19:40	21.3	21.3	21.3	63	10.7	0	1	90	0.00	30.435 
19:45	21.3	21.3	21.3	64	11.0	0	1	90	0.00	30.435 
19:50	21.3	21.3	21.3	64	11.0	0	1	90	0.00	30.435 
19:55	21.3	21.3	21.3	64	11.0	0	1	90	0.00	30.435 
20:00	21.3	21.3	21.3	64	11.0	0	1	90	0.00	30.435 
20:05	21.1	21.1	21.1	65	11.2	0	0	---	0.00	30.435 
20:10	21.1	21.1	21.1	65	11.2	0	0	---	0.00	30.435 
20:15	21.0	21.0	21.0	65	11.1	0	1	90	0.00	30.429 
20:20	21.0	21.0	21.0	65	11.1	0	1	90	0.00	30.429 
20:25	20.8	20.8	20.8	65	10.9	0	0	---	0.00	30.429 
20:30	20.8	20.8	20.8	65	10.9	0	0	---	0.00	30.424 
20:35	20.6	20.6	20.6	65	10.7	0	1	90	0.00	30.424 
20:40	20.5	20.5	20.5	66	11.0	0	0	---	0.00	30.424 
20:45	20.3	20.3	20.3	66	10.8	0	1	90	0.00	30.414 
20:50	20.3	20.3	20.3	66	10.8	0	0	---	0.00	30.414 
20:55	20.2	20.2	20.2	66	10.7	0	0	---	0.00	30.414 
21:00	20.0	20.0	20.0	66	10.5	0	0	---	0.00	30.413 
21:05	20.0	20.0	20.0	66	10.5	0	0	---	0.00	30.413 
21:10	19.9	19.9	19.9	66	10.4	0	0	---	0.00	30.413 
21:15	19.7	19.7	19.7	66	10.2	0	0	---	0.00	30.405 
21:20	19.5	19.5	19.5	66	10.0	0	0	---	0.00	30.405 
21:25	19.2	19.2	19.2	67	10.1	0	0	---	0.00	30.405 
21:30	19.1	19.1	19.1	68	10.3	0	0	---	0.00	30.397 
21:35	18.9	18.9	18.9	68	10.1	0	0	---	0.00	30.397 
21:40	18.8	18.8	18.8	68	10.0	0	0	---	0.00	30.397 
21:45	18.6	18.6	18.6	68	9.8	0	0	---	0.00	30.395 
21:50	18.4	18.4	18.4	68	9.6	0	0	---	0.00	30.395 
21:55	18.4	18.4	18.4	69	10.0	0	0	---	0.00	30.395 
22:00	18.6	18.6	18.6	69	10.2	0	1	90	0.00	30.395 
22:05	18.9	18.9	18.9	68	10.1	0	0	---	0.00	30.395 
22:10	19.1	19.1	19.1	68	10.3	0	0	---	0.00	30.395 
22:15	19.4	19.4	19.4	67	10.3	0	0	---	0.00	30.391 
22:20	19.7	19.7	19.7	66	10.2	0	1	90	0.00	30.391 
22:25	19.9	19.9	19.9	65	10.1	0	0	---	0.00	30.391 
22:30	20.2	20.2	20.2	65	10.3	0	1	90	0.00	30.383 
22:35	20.2	20.2	20.2	64	10.0	0	0	---	0.00	30.383 
22:40	20.2	20.2	20.2	64	10.0	0	0	---	0.00	30.383 
22:45	20.2	20.2	20.2	64	10.0	0	0	---	0.00	30.374 
22:50	20.2	20.2	20.2	64	10.0	0	1	90	0.00	30.374 
22:55	20.2	20.2	20.2	64	10.0	0	1	90	0.00	30.374 
23:00	20.0	20.0	20.0	64	9.8	0	0	---	0.00	30.368 
23:05	19.9	19.9	19.9	64	9.7	0	1	90	0.00	30.368 
23:10	19.7	19.7	19.7	64	9.5	0	1	90	0.00	30.368 
23:15	19.7	19.7	19.7	65	9.9	0	1	90	0.00	30.358 
23:20	19.7	19.7	19.7	65	9.9	0	1	90	0.00	30.358 
23:25	19.5	19.5	19.5	65	9.7	0	0	---	0.00	30.358 
23:30	19.5	19.5	19.5	65	9.7	0	0	---	0.00	30.353 
23:35	19.4	19.4	19.4	65	9.6	0	0	---	0.00	30.353 
23:40	19.2	19.2	19.2	65	9.4	0	1	90	0.00	30.353 
23:45	19.1	19.1	19.1	66	9.6	0	0	---	0.00	30.344 
23:50	18.9	18.9	18.9	66	9.4	0	0	---	0.00	30.344 
23:55	18.9	18.9	18.9	67	9.8	0	1	90	0.00	30.344 

CoCoRaHS
IN-AL-39
A2 Web Hosting
Creative Commons License
GoDaddy
search engine by freefind advanced

loaded 2018-11-16 10:40:52 • last modified 2010-11-18 10:43:29
Privacy PolicyDisclaimer
• wx.awcolley.com is powered by PmWiki v.2002016 •
• all content (unless otherwise noted) © 2018 A W Colley